Time;durP1;ratioP1;P1;durP2;ratioP2;P2;SDS_P1;SDS_P2;PMS_P1;PMS_P2;Temp;Humidity;BMP_temperature;BMP_pressure;BME280_temperature;BME280_humidity;BME280_pressure;Samples;Min_cycle;Max_cycle;Signal;HPM_P1;HPM_P2
2023/09/08 00:00:24;;;;;;;0.70;0.70;;;;;;;21.72;73.82;95693.84;5072909;28;20542;-59
2023/09/08 00:02:53;;;;;;;1.27;1.13;;;;;;;21.97;73.10;95690.97;5072802;28;20441;-59
2023/09/08 00:05:21;;;;;;;0.60;0.43;;;;;;;22.23;72.77;95688.00;5072192;28;20661;-59
2023/09/08 00:07:49;;;;;;;0.40;0.20;;;;;;;22.41;73.70;95680.50;5073298;28;20442;-59
2023/09/08 00:10:19;;;;;;;0.40;0.30;;;;;;;22.23;75.24;95689.91;5072880;28;20433;-59
2023/09/08 00:12:47;;;;;;;0.70;0.57;;;;;;;22.33;74.18;95675.97;5072545;28;20445;-59
2023/09/08 00:15:16;;;;;;;0.50;0.30;;;;;;;22.50;73.84;95692.78;5073361;28;20815;-59
2023/09/08 00:17:47;;;;;;;0.50;0.30;;;;;;;22.41;72.41;95685.91;5072832;28;20488;-59
2023/09/08 00:20:15;;;;;;;0.40;0.30;;;;;;;22.15;72.84;95661.88;5072720;28;20854;-60
2023/09/08 00:22:44;;;;;;;0.47;0.30;;;;;;;22.35;73.38;95700.75;5073007;28;20498;-60
2023/09/08 00:25:12;;;;;;;1.00;0.50;;;;;;;22.43;72.21;95692.56;5073080;28;20471;-60
2023/09/08 00:27:42;;;;;;;1.10;0.60;;;;;;;22.50;71.94;95697.41;5072657;28;20499;-59
2023/09/08 00:30:11;;;;;;;0.50;0.30;;;;;;;22.50;72.68;95687.38;5073023;28;20464;-60
2023/09/08 00:32:39;;;;;;;0.60;0.50;;;;;;;22.50;72.24;95698.19;5071915;28;20492;-59
2023/09/08 00:35:11;;;;;;;0.40;0.30;;;;;;;22.47;72.26;95698.06;5072037;28;21000;-59
2023/09/08 00:37:40;;;;;;;1.80;0.60;;;;;;;22.48;71.73;95697.75;5072502;28;20559;-59
2023/09/08 00:40:09;;;;;;;0.50;0.30;;;;;;;22.40;71.62;95677.00;5072762;28;20445;-59
2023/09/08 00:42:38;;;;;;;0.40;0.30;;;;;;;22.50;73.15;95702.78;5072350;28;20952;-59
2023/09/08 00:45:08;;;;;;;0.40;0.30;;;;;;;22.55;70.72;95697.97;5072305;28;20459;-59
2023/09/08 00:47:36;;;;;;;0.53;0.50;;;;;;;22.49;70.91;95706.63;5072641;28;20441;-58
2023/09/08 00:50:06;;;;;;;0.40;0.30;;;;;;;22.55;71.37;95708.78;5071668;28;20481;-59
2023/09/08 00:52:35;;;;;;;0.50;0.30;;;;;;;22.56;70.78;95704.97;5072122;28;20465;-58
2023/09/08 00:55:03;;;;;;;1.00;0.33;;;;;;;22.45;71.26;95701.09;5071705;28;20449;-58
2023/09/08 00:57:32;;;;;;;0.60;0.47;;;;;;;22.51;71.83;95707.88;5071551;28;20480;-59
2023/09/08 01:00:02;;;;;;;0.60;0.40;;;;;;;22.49;71.74;95707.41;5071987;28;21173;-59
2023/09/08 01:02:32;;;;;;;0.50;0.40;;;;;;;22.55;72.41;95699.88;5072110;28;20507;-59
2023/09/08 01:05:01;;;;;;;0.43;0.33;;;;;;;22.31;74.60;95699.84;5072032;28;20441;-59
2023/09/08 01:07:32;;;;;;;8.27;2.57;;;;;;;21.81;79.38;95699.94;5071583;28;20476;-60
2023/09/08 01:10:04;;;;;;;1.13;0.80;;;;;;;21.76;80.11;95694.75;5071402;28;20926;-59
2023/09/08 01:12:33;;;;;;;0.50;0.40;;;;;;;21.53;82.85;95697.81;5071916;28;20860;-59
2023/09/08 01:15:01;;;;;;;0.63;0.60;;;;;;;21.22;85.76;95683.13;5072074;28;20437;-59
2023/09/08 01:17:29;;;;;;;0.90;0.90;;;;;;;20.99;90.22;95681.81;5071282;28;20484;-59
2023/09/08 01:20:05;;;;;;;1.63;0.57;;;;;;;21.20;91.75;95683.44;5071479;28;20444;-59
2023/09/08 01:22:56;;;;;;;0.63;0.57;;;;;;;21.23;87.15;95682.00;5070940;28;20949;-59
2023/09/08 01:25:27;;;;;;;0.67;0.67;;;;;;;21.05;86.06;95677.81;5071649;28;20465;-60
2023/09/08 01:27:58;;;;;;;1.43;1.33;;;;;;;20.82;87.12;95653.06;5071764;28;20445;-59
2023/09/08 01:30:32;;;;;;;5.73;1.70;;;;;;;20.89;87.48;95666.81;5071700;28;21128;-59
2023/09/08 01:33:01;;;;;;;1.80;1.27;;;;;;;20.89;88.07;95670.31;5071821;28;21012;-60
2023/09/08 01:35:30;;;;;;;1.20;1.10;;;;;;;20.94;89.32;95665.81;5071360;28;20544;-59
2023/09/08 01:37:59;;;;;;;1.33;1.23;;;;;;;20.98;86.61;95670.22;5071829;28;20546;-59
2023/09/08 01:40:29;;;;;;;2.53;1.23;;;;;;;21.20;85.85;95666.50;5071537;28;20522;-59
2023/09/08 01:42:57;;;;;;;1.23;0.77;;;;;;;21.02;85.08;95665.00;5071186;28;20449;-59
2023/09/08 01:45:25;;;;;;;3.70;1.77;;;;;;;20.91;85.41;95656.50;5070306;28;20975;-59
2023/09/08 01:47:54;;;;;;;2.30;1.17;;;;;;;20.93;85.70;95678.50;5071253;28;20510;-59
2023/09/08 01:50:24;;;;;;;1.37;1.20;;;;;;;20.92;84.45;95666.94;5070883;28;20492;-59
2023/09/08 01:52:53;;;;;;;2.00;1.90;;;;;;;20.95;84.16;95657.41;5071236;28;21087;-59
2023/09/08 01:55:21;;;;;;;1.23;1.13;;;;;;;20.98;84.02;95664.06;5070674;28;20521;-59
2023/09/08 01:57:51;;;;;;;10.80;2.00;;;;;;;21.00;84.66;95661.84;5071429;28;20473;-59
2023/09/08 02:00:19;;;;;;;4.13;1.70;;;;;;;20.86;84.86;95662.06;5070684;28;20444;-59
2023/09/08 02:02:47;;;;;;;1.63;1.53;;;;;;;20.81;84.93;95662.25;5059667;28;20439;-59
2023/09/08 02:05:16;;;;;;;2.07;1.97;;;;;;;20.89;84.82;95666.81;5070155;28;20437;-59
2023/09/08 02:07:44;;;;;;;2.43;2.23;;;;;;;20.88;84.47;95673.31;5070950;28;20459;-59
2023/09/08 02:10:13;;;;;;;3.47;1.37;;;;;;;20.91;84.46;95669.97;5070890;28;20437;-59
2023/09/08 02:12:41;;;;;;;1.73;1.43;;;;;;;20.96;85.92;95672.47;5071145;28;20519;-59
2023/09/08 02:15:12;;;;;;;2.63;1.53;;;;;;;20.85;82.79;95660.47;5045237;28;20789;-59
2023/09/08 02:17:40;;;;;;;1.70;1.60;;;;;;;21.01;82.80;95658.00;5070670;28;21002;-59
2023/09/08 02:20:10;;;;;;;1.93;1.83;;;;;;;20.61;81.33;95579.50;5070904;28;20475;-59
2023/09/08 02:22:38;;;;;;;0.77;0.57;;;;;;;21.12;81.41;95664.66;5070732;28;20441;-59
2023/09/08 02:25:08;;;;;;;0.90;0.80;;;;;;;21.34;80.27;95653.53;5070878;28;20445;-60
2023/09/08 02:27:36;;;;;;;1.20;1.10;;;;;;;21.11;80.73;95644.19;5071147;28;20495;-59
2023/09/08 02:30:05;;;;;;;1.60;1.30;;;;;;;20.83;81.65;95644.66;5070880;28;20449;-60
2023/09/08 02:32:35;;;;;;;1.23;1.13;;;;;;;21.05;82.49;95634.69;5070207;28;20525;-60
2023/09/08 02:35:05;;;;;;;2.37;0.80;;;;;;;21.25;81.23;95647.44;5073153;28;20484;-60
2023/09/08 02:37:33;;;;;;;1.43;1.00;;;;;;;20.98;82.55;95640.59;5074099;28;20477;-60
2023/09/08 02:40:03;;;;;;;7.13;0.90;;;;;;;21.13;81.32;95645.44;5074797;28;20503;-60
2023/09/08 02:42:31;;;;;;;1.10;1.00;;;;;;;20.98;81.71;95643.28;5075066;28;20494;-60
2023/09/08 02:45:00;;;;;;;1.13;0.97;;;;;;;20.82;82.19;95637.66;5074795;28;20907;-60
2023/09/08 02:47:28;;;;;;;2.87;0.73;;;;;;;20.72;84.46;95640.75;5074811;28;20444;-60
2023/09/08 02:49:58;;;;;;;1.33;0.70;;;;;;;20.49;82.95;95614.41;5074684;28;20499;-60
2023/09/08 02:52:26;;;;;;;0.83;0.80;;;;;;;20.79;80.31;95641.03;5074977;28;20436;-60
2023/09/08 02:54:54;;;;;;;0.50;0.50;;;;;;;20.73;80.69;95636.94;5074789;28;20922;-60
2023/09/08 02:57:24;;;;;;;0.60;0.50;;;;;;;20.84;80.76;95634.66;5074657;28;20890;-60
2023/09/08 02:59:56;;;;;;;0.80;0.70;;;;;;;20.82;80.54;95636.91;5074324;28;20526;-60
2023/09/08 03:02:25;;;;;;;0.87;0.77;;;;;;;19.66;80.32;95516.44;5074551;28;20441;-61
2023/09/08 03:04:54;;;;;;;1.60;1.13;;;;;;;20.14;81.73;95601.06;5073966;28;20446;-60
2023/09/08 03:07:24;;;;;;;1.17;1.07;;;;;;;20.20;79.87;95624.00;5074554;28;20945;-61
2023/09/08 03:09:53;;;;;;;0.87;0.87;;;;;;;20.40;79.93;95635.19;5074394;28;20437;-61
2023/09/08 03:12:21;;;;;;;0.50;0.40;;;;;;;20.52;80.09;95635.28;5074461;28;20487;-61
2023/09/08 03:14:49;;;;;;;0.73;0.73;;;;;;;20.70;79.47;95631.41;5074215;28;20801;-61
2023/09/08 03:17:18;;;;;;;0.60;0.50;;;;;;;20.41;78.16;95591.00;5074369;28;20472;-61
2023/09/08 03:19:46;;;;;;;0.50;0.47;;;;;;;20.61;78.55;95636.84;5073435;28;20437;-61
2023/09/08 03:22:15;;;;;;;0.67;0.40;;;;;;;20.72;77.87;95640.75;5073362;28;20444;-61
2023/09/08 03:24:44;;;;;;;0.60;0.40;;;;;;;20.78;77.32;95633.25;5073855;28;20933;-61
2023/09/08 03:27:13;;;;;;;1.00;0.30;;;;;;;20.25;76.89;95558.47;5073653;28;20437;-61
2023/09/08 03:29:41;;;;;;;1.27;0.33;;;;;;;20.64;78.18;95627.34;5074057;28;20429;-61
2023/09/08 03:32:10;;;;;;;0.70;0.60;;;;;;;20.43;78.12;95631.84;5073500;28;20437;-60
2023/09/08 03:34:40;;;;;;;1.00;1.00;;;;;;;20.26;78.54;95611.19;5073489;28;20437;-62
2023/09/08 03:37:08;;;;;;;0.60;0.40;;;;;;;20.35;77.60;95640.75;5073923;28;20437;-61
2023/09/08 03:39:36;;;;;;;1.50;0.80;;;;;;;19.82;77.84;95631.22;5073706;28;20484;-61
2023/09/08 03:42:07;;;;;;;1.00;1.00;;;;;;;19.81;78.91;95639.63;5073284;28;20442;-61
2023/09/08 03:44:35;;;;;;;2.10;0.97;;;;;;;19.73;81.66;95645.81;5073604;28;20449;-61
2023/09/08 03:47:04;;;;;;;1.13;1.13;;;;;;;19.53;80.92;95641.88;5073174;28;20441;-61
2023/09/08 03:49:32;;;;;;;0.70;0.70;;;;;;;19.40;82.19;95643.63;5073029;28;20960;-61
2023/09/08 03:52:01;;;;;;;0.63;0.50;;;;;;;19.84;81.40;95642.44;5072417;28;20446;-61
2023/09/08 03:54:29;;;;;;;0.50;0.40;;;;;;;20.09;80.40;95638.91;5073048;28;20441;-61
2023/09/08 03:56:58;;;;;;;0.70;0.60;;;;;;;20.23;79.72;95647.63;5073481;28;20445;-61
2023/09/08 03:59:27;;;;;;;2.23;0.77;;;;;;;19.59;79.81;95644.06;5073201;28;20481;-61
2023/09/08 04:01:56;;;;;;;0.93;0.80;;;;;;;19.63;80.57;95655.75;5073480;28;20477;-61
2023/09/08 04:04:24;;;;;;;0.60;0.57;;;;;;;19.59;80.02;95657.53;5072584;28;20984;-62
2023/09/08 04:06:52;;;;;;;2.97;0.77;;;;;;;19.60;79.83;95658.31;5072925;28;20448;-62
2023/09/08 04:09:21;;;;;;;0.70;0.70;;;;;;;19.78;81.43;95645.66;5072890;28;20473;-61
2023/09/08 04:11:49;;;;;;;0.50;0.40;;;;;;;19.65;81.32;95655.47;5072967;28;20495;-61
2023/09/08 04:14:18;;;;;;;0.80;0.53;;;;;;;19.84;80.98;95645.16;5072766;28;20448;-61
2023/09/08 04:16:47;;;;;;;0.73;0.50;;;;;;;19.67;79.96;95660.50;5073071;28;20934;-62
2023/09/08 04:19:15;;;;;;;1.80;1.37;;;;;;;19.36;80.54;95657.97;5072643;28;20622;-61
2023/09/08 04:21:44;;;;;;;2.93;0.57;;;;;;;19.57;81.25;95654.38;5073124;28;20442;-62
2023/09/08 04:24:12;;;;;;;0.60;0.50;;;;;;;19.88;81.27;95667.63;5072667;28;21015;-62
2023/09/08 04:26:40;;;;;;;1.07;1.07;;;;;;;19.64;79.96;95640.44;5072438;28;20494;-62
2023/09/08 04:29:09;;;;;;;0.60;0.50;;;;;;;19.66;80.19;95667.78;5072308;28;20437;-61
2023/09/08 04:31:37;;;;;;;0.60;0.50;;;;;;;19.61;81.15;95667.94;5072524;28;20495;-61
2023/09/08 04:34:07;;;;;;;0.90;0.90;;;;;;;19.28;79.95;95672.19;5072193;28;20839;-60
2023/09/08 04:36:35;;;;;;;1.33;1.23;;;;;;;19.37;80.83;95654.22;5072468;28;20477;-61
2023/09/08 04:39:04;;;;;;;0.67;0.50;;;;;;;19.61;80.65;95666.06;5071889;28;21027;-61
2023/09/08 04:41:32;;;;;;;0.60;0.60;;;;;;;19.90;79.63;95692.31;5072600;28;20791;-61
2023/09/08 04:44:01;;;;;;;0.80;0.50;;;;;;;19.53;78.50;95645.34;5071953;28;20441;-60
2023/09/08 04:46:29;;;;;;;0.50;0.40;;;;;;;20.04;78.37;95684.03;5072141;28;20857;-60
2023/09/08 04:48:57;;;;;;;0.60;0.40;;;;;;;19.85;78.94;95681.72;5071367;28;20496;-60
2023/09/08 04:51:27;;;;;;;1.10;0.83;;;;;;;19.94;76.86;95690.53;5072413;28;20445;-59
2023/09/08 04:53:55;;;;;;;1.10;0.40;;;;;;;19.92;79.28;95686.59;5071523;28;21127;-60
2023/09/08 04:56:24;;;;;;;0.80;0.77;;;;;;;19.75;77.64;95695.47;5071631;28;20465;-60
2023/09/08 04:58:52;;;;;;;1.53;0.40;;;;;;;19.83;78.37;95686.63;5071372;28;20481;-60
2023/09/08 05:01:20;;;;;;;1.10;0.80;;;;;;;19.79;76.62;95680.28;5071691;28;20491;-59
2023/09/08 05:03:49;;;;;;;1.37;0.67;;;;;;;20.05;78.18;95686.41;5071246;28;20441;-59
2023/09/08 05:06:17;;;;;;;0.50;0.40;;;;;;;19.96;75.79;95685.63;5071139;28;20469;-59
2023/09/08 05:08:47;;;;;;;1.13;0.50;;;;;;;19.91;76.55;95690.41;5072291;28;20484;-60
2023/09/08 05:11:16;;;;;;;0.53;0.50;;;;;;;20.29;75.84;95682.44;5072138;28;20895;-60
2023/09/08 05:13:45;;;;;;;0.47;0.33;;;;;;;20.48;77.31;95693.63;5071746;28;20446;-59
2023/09/08 05:16:13;;;;;;;3.03;0.53;;;;;;;20.73;75.81;95690.81;5071609;28;20440;-59
2023/09/08 05:18:42;;;;;;;0.87;0.63;;;;;;;20.32;73.81;95641.41;5071750;28;20444;-58
2023/09/08 05:21:10;;;;;;;1.17;1.07;;;;;;;20.49;74.46;95692.50;5071374;28;20520;-59
2023/09/08 05:23:38;;;;;;;0.60;0.50;;;;;;;20.68;73.58;95699.09;5071770;28;20473;-58
2023/09/08 05:26:08;;;;;;;0.60;0.43;;;;;;;20.82;74.05;95688.09;5071295;28;20611;-58
2023/09/08 05:28:36;;;;;;;7.03;1.03;;;;;;;20.92;74.18;95699.28;5071329;28;20453;-58
2023/09/08 05:31:07;;;;;;;0.70;0.40;;;;;;;21.18;72.30;95698.38;5070761;28;21176;-59
2023/09/08 05:33:35;;;;;;;0.40;0.30;;;;;;;21.30;72.20;95699.22;5071327;28;20495;-58
2023/09/08 05:36:04;;;;;;;1.03;0.50;;;;;;;21.56;71.95;95692.88;5071497;28;20443;-58
2023/09/08 05:38:32;;;;;;;0.93;0.50;;;;;;;21.42;71.67;95702.03;5071182;28;20445;-58
2023/09/08 05:41:02;;;;;;;0.50;0.40;;;;;;;21.38;70.35;95671.41;5071117;28;20441;-59
2023/09/08 05:43:32;;;;;;;0.83;0.83;;;;;;;21.55;69.21;95691.31;5071614;28;20553;-57
2023/09/08 05:46:01;;;;;;;0.60;0.60;;;;;;;21.60;68.69;95696.50;5071393;28;20441;-57
2023/09/08 05:48:29;;;;;;;0.40;0.30;;;;;;;21.39;69.29;95661.44;5071689;28;20843;-57
2023/09/08 05:50:58;;;;;;;0.47;0.30;;;;;;;21.89;69.61;95686.44;5071058;28;20465;-57
2023/09/08 05:53:26;;;;;;;0.50;0.30;;;;;;;21.94;68.25;95653.03;5071188;28;20445;-57
2023/09/08 05:55:55;;;;;;;0.60;0.53;;;;;;;22.34;66.59;95710.75;5071156;28;20445;-58
2023/09/08 05:58:27;;;;;;;0.80;0.50;;;;;;;22.57;65.06;95681.41;5070665;28;20477;-57
2023/09/08 06:00:57;;;;;;;0.70;0.60;;;;;;;23.01;64.02;95702.19;5070591;28;20472;-58
2023/09/08 06:03:25;;;;;;;0.57;0.40;;;;;;;23.50;63.24;95705.69;5071025;28;20433;-57
2023/09/08 06:05:54;;;;;;;0.40;0.30;;;;;;;23.38;61.58;95678.63;5070735;28;20442;-56
2023/09/08 06:08:22;;;;;;;0.70;0.50;;;;;;;23.69;62.24;95669.88;5070479;28;20594;-56
2023/09/08 06:10:50;;;;;;;0.60;0.53;;;;;;;24.18;59.70;95678.59;5070387;28;20524;-56
2023/09/08 06:13:19;;;;;;;0.50;0.40;;;;;;;24.75;59.04;95700.59;5057566;28;20809;-57
2023/09/08 06:15:47;;;;;;;0.60;0.50;;;;;;;24.20;57.43;95708.84;5070723;28;20808;-56
2023/09/08 06:18:17;;;;;;;2.00;0.40;;;;;;;24.45;57.30;95699.44;5070706;28;20498;-56
2023/09/08 06:20:46;;;;;;;0.50;0.40;;;;;;;24.67;56.72;95700.78;5070118;28;21012;-57
2023/09/08 06:23:15;;;;;;;0.40;0.20;;;;;;;25.23;55.06;95699.44;5040350;28;20443;-58
2023/09/08 06:25:44;;;;;;;0.73;0.73;;;;;;;25.53;53.13;95699.75;5064925;28;20965;-58
2023/09/08 06:28:12;;;;;;;2.40;0.93;;;;;;;25.00;52.58;95666.75;5070789;28;20809;-58
2023/09/08 06:30:41;;;;;;;2.23;0.60;;;;;;;25.55;52.73;95705.63;5070727;28;20496;-59
2023/09/08 06:33:10;;;;;;;3.00;2.07;;;;;;;25.44;53.00;95702.66;5070819;28;20469;-58
2023/09/08 06:35:40;;;;;;;0.60;0.40;;;;;;;25.38;53.75;95700.56;5068394;28;20440;-58
2023/09/08 06:38:08;;;;;;;0.50;0.40;;;;;;;25.81;53.09;95713.94;5059720;28;20441;-58
2023/09/08 06:40:37;;;;;;;0.50;0.40;;;;;;;26.00;51.39;95703.09;5071026;28;20716;-57
2023/09/08 06:43:05;;;;;;;0.40;0.40;;;;;;;26.71;51.86;95718.03;5070467;28;20522;-57
2023/09/08 06:45:33;;;;;;;0.40;0.30;;;;;;;26.64;50.23;95713.25;5070360;28;20433;-57
2023/09/08 06:48:02;;;;;;;0.50;0.40;;;;;;;26.74;49.17;95703.72;5070927;28;20441;-57
2023/09/08 06:50:30;;;;;;;0.40;0.30;;;;;;;27.18;48.06;95715.72;5070187;28;20526;-57
2023/09/08 06:53:01;;;;;;;0.60;0.40;;;;;;;27.20;48.26;95709.94;5070984;28;20570;-58
2023/09/08 06:55:29;;;;;;;0.50;0.40;;;;;;;27.46;48.41;95713.47;5070284;28;20471;-58
2023/09/08 06:57:58;;;;;;;0.80;0.50;;;;;;;27.39;46.70;95688.09;5070502;28;20803;-58
2023/09/08 07:00:26;;;;;;;1.87;1.03;;;;;;;27.25;46.57;95712.34;5069953;28;20476;-58
2023/09/08 07:02:54;;;;;;;0.70;0.30;;;;;;;27.43;47.50;95714.19;5070864;28;20518;-57
2023/09/08 07:05:23;;;;;;;0.50;0.30;;;;;;;27.74;46.39;95713.06;5069958;28;20433;-57
2023/09/08 07:07:51;;;;;;;0.90;0.60;;;;;;;27.55;46.57;95713.97;5070837;28;20520;-57
2023/09/08 07:10:21;;;;;;;0.40;0.30;;;;;;;27.46;46.54;95677.28;5070213;28;20980;-57
2023/09/08 07:12:49;;;;;;;0.77;0.63;;;;;;;28.12;46.53;95712.03;5070470;28;20479;-57
2023/09/08 07:15:18;;;;;;;0.60;0.60;;;;;;;28.04;45.87;95708.44;5070795;28;20468;-58
2023/09/08 07:17:46;;;;;;;0.50;0.33;;;;;;;28.22;46.15;95706.69;5070262;28;20452;-57
2023/09/08 07:20:15;;;;;;;0.40;0.30;;;;;;;28.07;45.54;95701.44;5071461;28;20550;-57
2023/09/08 07:22:43;;;;;;;0.50;0.50;;;;;;;28.19;45.39;95684.84;5074123;28;20471;-57
2023/09/08 07:25:11;;;;;;;0.73;0.73;;;;;;;27.66;44.15;95705.97;5074187;28;20854;-57
2023/09/08 07:27:41;;;;;;;0.70;0.67;;;;;;;27.91;46.59;95706.28;5073363;28;20452;-56
2023/09/08 07:30:10;;;;;;;1.07;0.50;;;;;;;28.75;43.91;95707.28;5074118;28;20444;-56
2023/09/08 07:32:39;;;;;;;0.50;0.50;;;;;;;29.20;41.87;95695.19;5073958;28;20445;-56
2023/09/08 07:35:13;;;;;;;0.40;0.40;;;;;;;29.29;43.67;95695.66;5074395;28;20519;-55
2023/09/08 07:37:42;;;;;;;0.40;0.40;;;;;;;29.10;43.04;95703.25;5073030;28;20443;-55
2023/09/08 07:40:11;;;;;;;0.70;0.60;;;;;;;28.55;42.58;95700.44;5073680;28;20468;-55
2023/09/08 07:42:41;;;;;;;0.50;0.50;;;;;;;28.78;44.70;95689.38;5048141;28;20433;-56
2023/09/08 07:45:10;;;;;;;0.70;0.60;;;;;;;29.09;42.95;95697.03;5073084;28;20448;-56
2023/09/08 07:47:39;;;;;;;2.40;0.60;;;;;;;29.17;42.94;95684.22;5073453;28;20536;-56
2023/09/08 07:50:22;;;;;;;0.60;0.60;;;;;;;28.82;42.60;95685.50;5072675;28;20474;-56
2023/09/08 07:52:52;;;;;;;1.30;1.20;;;;;;;28.69;42.23;95681.47;5072982;28;20444;-56
2023/09/08 07:55:22;;;;;;;0.90;0.90;;;;;;;28.42;42.14;95685.47;5060130;28;20437;-56
2023/09/08 07:57:52;;;;;;;0.40;0.40;;;;;;;29.15;43.62;95687.31;5073387;28;20941;-57
2023/09/08 08:00:21;;;;;;;0.50;0.50;;;;;;;28.95;41.65;95666.91;5073370;28;20511;-56
2023/09/08 08:02:51;;;;;;;1.70;0.63;;;;;;;28.79;42.55;95666.41;5073346;28;20994;-57
2023/09/08 08:05:19;;;;;;;0.67;0.63;;;;;;;29.62;41.29;95670.09;5073051;28;20502;-55
2023/09/08 08:07:48;;;;;;;0.60;0.60;;;;;;;29.73;41.67;95664.69;5073053;28;20436;-54
2023/09/08 08:10:17;;;;;;;0.80;0.57;;;;;;;29.84;41.69;95671.00;5047440;28;20441;-55
2023/09/08 08:12:45;;;;;;;0.40;0.40;;;;;;;30.27;40.35;95674.69;5073554;28;20436;-55
2023/09/08 08:15:15;;;;;;;0.50;0.50;;;;;;;30.37;39.13;95665.75;5073227;28;20452;-55
2023/09/08 08:17:43;;;;;;;1.00;1.00;;;;;;;30.48;39.74;95664.63;5072773;28;20440;-54
2023/09/08 08:20:17;;;;;;;0.60;0.50;;;;;;;29.97;39.43;95664.03;5072772;28;20527;-54
2023/09/08 08:22:46;;;;;;;0.60;0.60;;;;;;;30.09;41.24;95663.69;5072904;28;20452;-55
2023/09/08 08:25:15;;;;;;;0.70;0.50;;;;;;;30.76;39.73;95655.66;5072600;28;20447;-56
2023/09/08 08:27:44;;;;;;;0.57;0.47;;;;;;;31.00;39.24;95657.63;5072769;28;20440;-55
2023/09/08 08:30:13;;;;;;;0.80;0.80;;;;;;;31.05;39.69;95659.97;5072901;28;20941;-55
2023/09/08 08:32:43;;;;;;;0.50;0.40;;;;;;;30.86;39.23;95654.88;5063159;28;20499;-56
2023/09/08 08:35:11;;;;;;;1.47;0.50;;;;;;;31.31;37.68;95654.09;5072652;28;20468;-55
2023/09/08 08:37:41;;;;;;;1.47;0.57;;;;;;;30.24;38.30;95646.16;5072397;28;20502;-55
2023/09/08 08:40:12;;;;;;;0.80;0.80;;;;;;;30.40;40.30;95640.38;5072317;28;20451;-54
2023/09/08 08:42:42;;;;;;;0.50;0.50;;;;;;;30.81;38.74;95644.31;5072028;28;20437;-54
2023/09/08 08:45:11;;;;;;;0.50;0.40;;;;;;;30.54;39.20;95638.41;5071973;28;20927;-54
2023/09/08 08:47:42;;;;;;;0.60;0.50;;;;;;;30.56;39.34;95627.09;5047232;28;20452;-55
2023/09/08 08:50:12;;;;;;;0.40;0.40;;;;;;;30.01;40.14;95635.53;5072397;28;20834;-54
2023/09/08 08:52:40;;;;;;;0.73;0.73;;;;;;;30.78;39.26;95629.47;5072163;28;20436;-54
2023/09/08 08:55:09;;;;;;;0.40;0.40;;;;;;;30.60;38.70;95612.25;5071864;28;20444;-54
2023/09/08 08:57:39;;;;;;;0.60;0.50;;;;;;;31.36;38.60;95626.28;5071824;28;20455;-54
2023/09/08 09:00:11;;;;;;;0.60;0.57;;;;;;;31.40;38.47;95624.31;5072025;28;20996;-54
2023/09/08 09:02:43;;;;;;;0.40;0.40;;;;;;;31.87;37.41;95622.22;5072296;28;20484;-55
2023/09/08 09:05:20;;;;;;;0.50;0.40;;;;;;;31.68;36.80;95609.75;5071927;28;20440;-55
2023/09/08 09:07:51;;;;;;;1.60;1.50;;;;;;;30.03;37.85;95586.72;5072211;28;20507;-54
2023/09/08 09:10:19;;;;;;;0.80;0.57;;;;;;;29.96;38.81;95605.84;5046446;28;20452;-54
2023/09/08 09:12:47;;;;;;;0.60;0.40;;;;;;;30.87;38.32;95598.94;5072092;28;20928;-55
2023/09/08 09:15:16;;;;;;;0.60;0.60;;;;;;;30.78;38.49;95591.16;5072048;28;20514;-55
2023/09/08 09:18:04;;;;;;;0.43;0.30;;;;;;;30.97;37.18;95600.16;5071582;28;20440;-55
2023/09/08 09:20:33;;;;;;;1.17;1.17;;;;;;;31.39;36.50;95591.84;5059851;28;20437;-55
2023/09/08 09:23:02;;;;;;;0.50;0.40;;;;;;;31.62;36.54;95566.75;5070220;28;20483;-56
2023/09/08 09:25:32;;;;;;;0.60;0.40;;;;;;;31.63;35.86;95584.72;5071904;28;20449;-55
2023/09/08 09:28:02;;;;;;;0.60;0.60;;;;;;;30.97;36.46;95584.50;5071124;28;20847;-55
2023/09/08 09:30:49;;;;;;;3.80;0.40;;;;;;;32.39;36.04;95596.47;5071498;28;20472;-54
2023/09/08 09:33:19;;;;;;;0.47;0.40;;;;;;;31.53;35.14;95593.78;5070904;28;20440;-54
2023/09/08 09:35:49;;;;;;;1.17;0.70;;;;;;;31.48;35.88;95573.03;5071143;28;20474;-54
2023/09/08 09:38:18;;;;;;;2.10;0.63;;;;;;;31.71;35.53;95583.53;5071119;28;20448;-54
2023/09/08 09:40:47;;;;;;;0.50;0.50;;;;;;;30.41;35.18;95584.50;5071462;28;20956;-55
2023/09/08 09:43:16;;;;;;;1.37;0.40;;;;;;;29.90;35.12;95566.41;5071373;28;20971;-54
2023/09/08 09:45:44;;;;;;;0.40;0.30;;;;;;;30.63;36.43;95597.00;5071113;28;20448;-55
2023/09/08 09:48:13;;;;;;;0.80;0.80;;;;;;;30.74;34.64;95571.19;5071228;28;20444;-55
2023/09/08 09:50:43;;;;;;;0.50;0.50;;;;;;;30.72;33.93;95575.50;5070502;28;20569;-55
2023/09/08 09:53:12;;;;;;;0.50;0.40;;;;;;;31.13;35.99;95529.31;5071080;28;20445;-55
2023/09/08 09:55:42;;;;;;;1.30;0.70;;;;;;;32.52;34.19;95566.63;5070946;28;20491;-55
2023/09/08 09:58:11;;;;;;;0.40;0.30;;;;;;;32.62;32.29;95544.59;5071520;28;20502;-55
2023/09/08 10:00:40;;;;;;;4.70;2.30;;;;;;;32.15;33.69;95553.56;5045276;28;20905;-54
2023/09/08 10:03:11;;;;;;;1.90;1.10;;;;;;;32.39;32.29;95552.59;5070448;28;21022;-54
2023/09/08 10:05:39;;;;;;;0.70;0.40;;;;;;;31.27;32.19;95538.25;5070464;28;20444;-54
2023/09/08 10:08:09;;;;;;;0.77;0.77;;;;;;;31.89;32.85;95521.16;5070676;28;20498;-54
2023/09/08 10:10:41;;;;;;;0.40;0.37;;;;;;;32.45;32.80;95547.44;5070956;28;20437;-54
2023/09/08 10:13:12;;;;;;;0.50;0.40;;;;;;;32.95;32.26;95545.84;5071016;28;20841;-54
2023/09/08 10:15:43;;;;;;;0.40;0.37;;;;;;;33.61;31.98;95537.31;5070843;28;20444;-55
2023/09/08 10:18:17;;;;;;;0.40;0.30;;;;;;;33.49;30.86;95533.13;5070795;28;20437;-54
2023/09/08 10:20:45;;;;;;;0.40;0.33;;;;;;;33.66;31.12;95536.84;5071097;28;20454;-59
2023/09/08 10:23:24;;;;;;;1.20;0.47;;;;;;;33.51;31.38;95524.44;5065779;28;20556;-54
2023/09/08 10:25:58;;;;;;;0.43;0.37;;;;;;;33.26;31.86;95538.50;5070687;28;20198;-56
2023/09/08 10:28:31;;;;;;;1.33;0.40;;;;;;;32.93;31.92;95518.03;5071038;28;20554;-55
2023/09/08 10:31:00;;;;;;;1.40;0.70;;;;;;;31.38;32.47;95532.75;5070087;28;20818;-55
2023/09/08 10:33:29;;;;;;;0.43;0.43;;;;;;;31.87;33.58;95529.81;5071351;28;20197;-55
2023/09/08 10:36:00;;;;;;;0.50;0.33;;;;;;;32.56;32.17;95535.22;5070583;28;20301;-55
2023/09/08 10:38:33;;;;;;;0.30;0.30;;;;;;;32.96;31.86;95536.44;5070608;28;20448;-55
2023/09/08 10:41:31;;;;;;;0.80;0.70;;;;;;;32.74;31.98;95534.31;5070625;28;20979;-55
2023/09/08 10:44:04;;;;;;;0.50;0.50;;;;;;;33.06;31.88;95523.81;5070666;28;20440;-54
2023/09/08 10:46:34;;;;;;;0.40;0.30;;;;;;;33.68;29.92;95528.97;5071008;28;20464;-54
2023/09/08 10:49:06;;;;;;;0.50;0.40;;;;;;;34.07;30.31;95540.25;5070574;28;20456;-55
2023/09/08 10:51:35;;;;;;;0.30;0.30;;;;;;;33.61;30.58;95535.34;5070848;28;20508;-54
2023/09/08 10:54:07;;;;;;;0.57;0.57;;;;;;;34.43;30.18;95535.00;5070321;28;20952;-55
2023/09/08 10:56:50;;;;;;;2.70;0.30;;;;;;;34.07;28.20;95532.00;5073315;28;20521;-55
2023/09/08 10:59:18;;;;;;;0.50;0.50;;;;;;;34.65;29.93;95530.72;5074522;28;20678;-55
2023/09/08 11:01:48;;;;;;;1.10;1.10;;;;;;;33.74;28.57;95525.38;5074283;28;20495;-55
2023/09/08 11:04:18;;;;;;;0.80;0.60;;;;;;;34.31;30.47;95530.06;5074616;28;20198;-55
2023/09/08 11:06:47;;;;;;;1.23;0.60;;;;;;;34.09;28.78;95496.59;5074477;28;20233;-55
2023/09/08 11:09:17;;;;;;;0.50;0.33;;;;;;;34.02;29.95;95498.66;5073758;28;20230;-54
2023/09/08 11:11:46;;;;;;;0.40;0.40;;;;;;;34.08;29.20;95525.28;5048664;28;20195;-55
2023/09/08 11:14:15;;;;;;;0.40;0.40;;;;;;;33.92;28.50;95514.13;5073571;28;20205;-55
2023/09/08 11:16:44;;;;;;;0.87;0.87;;;;;;;34.12;29.70;95520.53;5074047;28;20614;-53
2023/09/08 11:19:12;;;;;;;0.60;0.40;;;;;;;32.28;29.69;95524.47;5073934;28;20533;-54
2023/09/08 11:21:42;;;;;;;0.30;0.27;;;;;;;32.04;29.87;95508.97;5074181;28;20248;-54
2023/09/08 11:24:14;;;;;;;3.43;0.40;;;;;;;32.31;29.68;95500.94;5074060;28;20205;-54
2023/09/08 11:26:46;;;;;;;0.40;0.40;;;;;;;33.08;29.47;95500.22;5073988;28;20477;-54
2023/09/08 11:29:15;;;;;;;0.50;0.50;;;;;;;32.69;30.02;95479.84;5073368;28;20198;-54
2023/09/08 11:31:44;;;;;;;25.77;0.50;;;;;;;31.58;29.97;95498.22;5073058;28;20476;-53
2023/09/08 11:34:14;;;;;;;0.40;0.40;;;;;;;32.52;29.76;95500.75;5073169;28;20436;-53
2023/09/08 11:36:42;;;;;;;1.60;0.50;;;;;;;33.66;29.73;95512.91;5073646;28;20962;-53
2023/09/08 11:39:11;;;;;;;0.60;0.50;;;;;;;33.69;29.21;95472.81;5073206;28;20527;-54
2023/09/08 11:41:39;;;;;;;0.90;0.80;;;;;;;34.24;28.87;95488.91;5073667;28;20471;-54
2023/09/08 11:44:09;;;;;;;1.10;0.50;;;;;;;34.70;28.87;95494.44;5073334;28;20698;-54